Time;durP1;ratioP1;P1;durP2;ratioP2;P2;SDS_P1;SDS_P2;PMS_P1;PMS_P2;Temp;Humidity;BMP_temperature;BMP_pressure;BME280_temperature;BME280_humidity;BME280_pressure;Samples;Min_cycle;Max_cycle;Signal;HPM_P1;HPM_P2
2024/03/23 00:01:58;;;;;;;5.90;1.77;;;9.70;99.90;;;;;;6154959;23;20495;-62
2024/03/23 00:04:29;;;;;;;5.47;2.00;;;9.70;99.90;;;;;;6155365;23;20412;-64
2024/03/23 00:06:59;;;;;;;22.97;3.97;;;9.60;99.90;;;;;;6155522;23;20417;-62
2024/03/23 00:09:29;;;;;;;6.10;2.90;;;9.60;99.90;;;;;;6154611;23;20448;-62
2024/03/23 00:11:59;;;;;;;12.27;2.90;;;9.60;99.90;;;;;;6154520;23;20758;-63
2024/03/23 00:14:29;;;;;;;10.30;2.47;;;9.50;99.90;;;;;;6153075;23;20415;-63
2024/03/23 00:16:59;;;;;;;17.50;2.50;;;9.50;99.90;;;;;;6155417;23;20442;-62
2024/03/23 00:19:29;;;;;;;4.50;2.33;;;9.50;99.90;;;;;;6154978;23;20466;-61
2024/03/23 00:21:59;;;;;;;4.50;1.80;;;9.50;99.90;;;;;;6154816;23;20814;-63
2024/03/23 00:24:29;;;;;;;16.03;3.63;;;9.50;99.90;;;;;;6155108;23;20438;-62
2024/03/23 00:26:59;;;;;;;9.53;1.90;;;9.50;99.90;;;;;;6155366;23;21060;-63
2024/03/23 00:29:29;;;;;;;7.73;2.80;;;9.40;99.90;;;;;;6155019;23;20410;-61
2024/03/23 00:31:59;;;;;;;8.93;2.63;;;9.40;99.90;;;;;;6154210;23;20426;-62
2024/03/23 00:34:29;;;;;;;8.70;2.17;;;9.40;99.90;;;;;;6155349;23;20410;-63
2024/03/23 00:36:59;;;;;;;9.73;3.00;;;9.40;99.90;;;;;;6155139;23;20470;-69
2024/03/23 00:39:30;;;;;;;6.93;2.30;;;9.40;99.90;;;;;;6154757;23;20924;-63
2024/03/23 00:42:02;;;;;;;11.27;3.03;;;9.40;99.90;;;;;;6155727;23;20786;-60
2024/03/23 00:44:33;;;;;;;8.67;3.17;;;9.40;99.90;;;;;;6155028;23;20445;-62
2024/03/23 00:47:02;;;;;;;9.30;2.40;;;9.30;99.90;;;;;;6154848;23;20429;-59
2024/03/23 00:49:33;;;;;;;10.90;2.23;;;9.30;99.90;;;;;;6155447;23;20409;-62
2024/03/23 00:52:02;;;;;;;3.30;1.70;;;9.30;99.90;;;;;;6154770;23;20422;-61
2024/03/23 00:54:30;;;;;;;8.10;1.90;;;9.30;99.90;;;;;;6154797;23;20888;-61
2024/03/23 00:56:56;;;;;;;15.43;2.90;;;9.30;99.90;;;;;;6154451;23;20438;-63
2024/03/23 00:59:27;;;;;;;5.30;2.37;;;9.30;99.90;;;;;;6155038;23;20402;-60
2024/03/23 01:01:53;;;;;;;7.23;2.07;;;9.30;99.90;;;;;;6155273;23;20422;-61
2024/03/23 01:04:19;;;;;;;10.63;2.50;;;9.30;99.90;;;;;;6154694;23;20492;-64
2024/03/23 01:06:45;;;;;;;14.70;3.23;;;9.40;99.90;;;;;;6154467;23;20410;-61
2024/03/23 01:09:13;;;;;;;11.00;2.70;;;9.40;99.90;;;;;;6154336;23;20469;-62
2024/03/23 01:11:40;;;;;;;10.00;2.57;;;9.30;99.90;;;;;;6154265;23;20179;-59
2024/03/23 01:14:07;;;;;;;11.33;2.73;;;9.30;99.90;;;;;;6154132;23;20481;-62
2024/03/23 01:16:33;;;;;;;13.73;3.30;;;9.30;99.90;;;;;;6154039;23;20928;-61
2024/03/23 01:19:00;;;;;;;15.53;3.37;;;9.40;99.90;;;;;;6153977;23;20432;-64
2024/03/23 01:21:26;;;;;;;13.03;4.33;;;9.40;99.90;;;;;;6152896;23;20210;-63
2024/03/23 01:23:56;;;;;;;10.50;4.40;;;9.40;99.90;;;;;;6152521;23;20615;-61
2024/03/23 01:26:22;;;;;;;10.60;2.77;;;9.40;99.90;;;;;;6153198;23;20440;-63
2024/03/23 01:28:50;;;;;;;12.70;3.43;;;9.40;99.90;;;;;;6154397;23;20402;-62
2024/03/23 01:31:16;;;;;;;7.63;2.83;;;9.40;99.90;;;;;;6152410;23;20402;-62
2024/03/23 01:33:43;;;;;;;16.17;3.40;;;9.50;99.90;;;;;;6154392;23;20425;-62
2024/03/23 01:36:09;;;;;;;9.97;2.83;;;9.50;99.90;;;;;;6154365;23;20179;-62
2024/03/23 01:38:36;;;;;;;6.73;2.80;;;9.50;99.90;;;;;;6154348;23;20406;-63
2024/03/23 01:41:02;;;;;;;19.17;3.70;;;9.50;99.90;;;;;;6154344;23;20731;-62
2024/03/23 01:43:29;;;;;;;7.23;2.93;;;9.50;99.90;;;;;;6153747;23;20785;-62
2024/03/23 01:45:56;;;;;;;11.23;2.67;;;9.60;99.90;;;;;;6154494;23;20405;-62
2024/03/23 01:48:24;;;;;;;7.17;2.73;;;9.50;99.90;;;;;;6154481;23;20826;-61
2024/03/23 01:50:50;;;;;;;8.00;3.00;;;9.50;99.90;;;;;;6154292;23;20406;-61
2024/03/23 01:53:19;;;;;;;6.27;2.60;;;9.50;99.90;;;;;;6154364;23;20505;-61
2024/03/23 01:55:45;;;;;;;7.37;2.67;;;9.50;99.90;;;;;;6154384;23;20410;-62
2024/03/23 01:58:12;;;;;;;14.80;3.07;;;9.50;99.90;;;;;;6153738;23;20465;-63
2024/03/23 02:00:38;;;;;;;12.70;3.30;;;9.50;99.90;;;;;;6153860;23;20202;-60
2024/03/23 02:03:23;;;;;;;11.77;3.30;;;9.50;99.90;;;;;;6153945;23;20422;-61
2024/03/23 02:05:49;;;;;;;7.23;3.37;;;9.50;99.90;;;;;;6154137;23;20383;-65
2024/03/23 02:08:17;;;;;;;14.33;3.73;;;9.50;99.90;;;;;;6153910;23;20505;-62
2024/03/23 02:10:43;;;;;;;14.30;3.57;;;9.50;99.90;;;;;;6154063;23;20445;-62
2024/03/23 02:13:10;;;;;;;6.73;2.47;;;9.50;99.90;;;;;;6153942;23;20422;-62
2024/03/23 02:15:36;;;;;;;11.23;4.10;;;9.50;99.90;;;;;;6153948;23;20480;-60
2024/03/23 02:18:03;;;;;;;14.10;3.03;;;9.50;99.90;;;;;;6153608;23;20398;-61
2024/03/23 02:20:30;;;;;;;9.20;4.33;;;9.50;99.90;;;;;;6154286;23;20182;-61
2024/03/23 02:22:58;;;;;;;11.00;3.80;;;9.40;99.90;;;;;;6153425;23;20434;-61
2024/03/23 02:25:24;;;;;;;16.40;3.03;;;9.50;99.90;;;;;;6153996;23;20469;-61
2024/03/23 02:27:53;;;;;;;14.27;3.37;;;9.50;99.90;;;;;;6153962;23;20885;-60
2024/03/23 02:30:18;;;;;;;19.57;8.80;;;9.50;99.90;;;;;;6153654;23;20412;-61
2024/03/23 02:32:45;;;;;;;23.20;11.60;;;9.50;99.90;;;;;;6153839;23;20497;-62
2024/03/23 02:35:11;;;;;;;39.70;20.37;;;9.50;99.90;;;;;;6154538;23;20410;-60
2024/03/23 02:37:38;;;;;;;16.67;4.70;;;9.50;99.90;;;;;;6153735;23;20459;-60
2024/03/23 02:40:09;;;;;;;7.83;2.43;;;9.50;99.90;;;;;;6153728;23;20406;-62
2024/03/23 02:42:36;;;;;;;10.17;3.93;;;9.40;99.90;;;;;;6153485;23;20798;-62
2024/03/23 02:45:04;;;;;;;9.77;2.90;;;9.40;99.90;;;;;;6154206;23;20488;-62
2024/03/23 02:47:31;;;;;;;5.87;2.27;;;9.50;99.90;;;;;;6153916;23;20406;-62
2024/03/23 02:49:57;;;;;;;12.40;3.50;;;9.50;99.90;;;;;;6154194;23;20781;-61
2024/03/23 02:52:24;;;;;;;9.50;4.20;;;9.50;99.90;;;;;;6153819;23;20426;-61
2024/03/23 02:54:50;;;;;;;19.17;2.90;;;9.50;99.90;;;;;;6154896;23;20399;-60
2024/03/23 02:57:18;;;;;;;10.13;2.70;;;9.50;99.90;;;;;;6155732;23;20418;-61
2024/03/23 02:59:44;;;;;;;4.33;2.40;;;9.50;99.90;;;;;;6156043;23;20178;-61
2024/03/23 03:02:12;;;;;;;10.03;3.17;;;9.40;99.90;;;;;;6155250;23;20426;-62
2024/03/23 03:04:38;;;;;;;7.77;3.00;;;9.40;99.90;;;;;;6155577;23;20445;-61
2024/03/23 03:07:05;;;;;;;5.37;2.97;;;9.40;99.90;;;;;;6155844;23;20402;-61
2024/03/23 03:09:30;;;;;;;13.23;3.80;;;9.30;99.90;;;;;;6155266;23;20415;-60
2024/03/23 03:11:57;;;;;;;17.60;3.33;;;9.30;99.90;;;;;;6155045;23;20512;-63
2024/03/23 03:14:24;;;;;;;13.90;3.73;;;9.20;99.90;;;;;;6155238;23;20437;-62
2024/03/23 03:16:51;;;;;;;7.17;3.03;;;9.20;99.90;;;;;;6155520;23;20488;-61
2024/03/23 03:19:17;;;;;;;7.70;2.73;;;9.20;99.90;;;;;;6156160;23;20917;-62
2024/03/23 03:21:47;;;;;;;8.03;2.27;;;9.10;99.90;;;;;;6155166;23;20430;-62
2024/03/23 03:24:13;;;;;;;12.43;2.97;;;9.00;99.90;;;;;;6155208;23;20517;-60
2024/03/23 03:26:40;;;;;;;9.90;2.83;;;9.00;99.90;;;;;;6155485;23;20406;-64
2024/03/23 03:29:06;;;;;;;9.47;2.93;;;9.00;99.90;;;;;;6155656;23;20774;-62
2024/03/23 03:31:34;;;;;;;12.10;2.77;;;9.00;99.90;;;;;;6154900;23;20405;-62
2024/03/23 03:34:00;;;;;;;13.40;3.00;;;8.90;99.90;;;;;;6154888;23;20206;-63
2024/03/23 03:36:27;;;;;;;4.43;2.10;;;8.90;99.90;;;;;;6155328;23;20405;-61
2024/03/23 03:38:53;;;;;;;16.30;2.73;;;8.90;99.90;;;;;;6155497;23;20262;-58
2024/03/23 03:41:20;;;;;;;11.67;2.70;;;8.90;99.90;;;;;;6155332;23;20419;-62
2024/03/23 03:43:46;;;;;;;14.93;3.37;;;8.80;99.90;;;;;;6154455;23;20485;-63
2024/03/23 03:46:13;;;;;;;16.30;2.53;;;8.80;99.90;;;;;;6155431;23;20493;-61
2024/03/23 03:48:40;;;;;;;8.47;3.83;;;8.80;99.90;;;;;;6155318;23;20451;-61
2024/03/23 03:51:09;;;;;;;5.87;3.03;;;8.80;99.90;;;;;;6155172;23;20421;-59
2024/03/23 03:53:35;;;;;;;14.67;2.10;;;8.80;99.90;;;;;;6154998;23;20807;-60
2024/03/23 03:56:02;;;;;;;6.77;2.07;;;8.70;99.90;;;;;;6155282;23;20406;-62
2024/03/23 03:58:29;;;;;;;9.63;3.10;;;8.70;99.90;;;;;;6154794;23;20290;-62
2024/03/23 04:00:55;;;;;;;14.40;3.10;;;8.70;99.90;;;;;;6155321;23;20734;-60
2024/03/23 04:03:22;;;;;;;9.47;2.30;;;8.60;99.90;;;;;;6154920;23;20453;-61
2024/03/23 04:05:52;;;;;;;12.10;3.13;;;8.60;99.90;;;;;;6154283;23;20446;-61
2024/03/23 04:08:19;;;;;;;5.27;2.60;;;8.60;99.90;;;;;;6155719;23;20877;-62
2024/03/23 04:10:45;;;;;;;20.43;4.03;;;8.60;99.90;;;;;;6154484;23;20444;-59
2024/03/23 04:13:12;;;;;;;12.90;4.07;;;8.60;99.90;;;;;;6154461;23;20433;-63
2024/03/23 04:15:38;;;;;;;10.63;2.77;;;8.60;99.90;;;;;;6154594;23;20410;-62
2024/03/23 04:18:05;;;;;;;14.03;3.20;;;8.60;99.90;;;;;;6154536;23;20492;-60
2024/03/23 04:20:32;;;;;;;8.60;2.63;;;8.60;99.90;;;;;;6155120;23;20406;-61
2024/03/23 04:23:00;;;;;;;7.17;3.47;;;8.60;99.90;;;;;;6154193;23;20460;-62
2024/03/23 04:25:26;;;;;;;15.37;3.03;;;8.60;99.90;;;;;;6154756;23;20532;-61
2024/03/23 04:27:53;;;;;;;4.90;2.13;;;8.60;99.90;;;;;;6155314;23;20773;-60
2024/03/23 04:30:19;;;;;;;4.53;2.20;;;8.50;99.90;;;;;;6155116;23;20889;-62
2024/03/23 04:32:46;;;;;;;5.13;1.90;;;8.40;99.90;;;;;;6154024;23;20422;-60
2024/03/23 04:35:12;;;;;;;8.83;1.70;;;8.40;99.90;;;;;;6154242;23;20430;-62
2024/03/23 04:37:41;;;;;;;6.47;1.90;;;8.40;99.90;;;;;;6153611;23;20406;-60
2024/03/23 04:40:11;;;;;;;8.13;2.00;;;8.30;99.90;;;;;;6154693;23;20399;-62
2024/03/23 04:42:38;;;;;;;7.30;2.73;;;8.20;99.90;;;;;;6153951;23;20426;-62
2024/03/23 04:45:06;;;;;;;4.20;1.87;;;8.20;99.90;;;;;;6153404;23;20449;-62
2024/03/23 04:47:33;;;;;;;7.73;1.47;;;8.10;99.90;;;;;;6154103;23;20757;-59
2024/03/23 04:49:59;;;;;;;4.10;1.50;;;8.00;99.90;;;;;;6152522;23;20456;-62
2024/03/23 04:52:26;;;;;;;7.00;1.97;;;8.00;99.90;;;;;;6154724;23;20473;-61
2024/03/23 04:54:52;;;;;;;3.20;1.67;;;8.00;99.90;;;;;;6153677;23;20433;-62
2024/03/23 04:57:20;;;;;;;3.63;1.90;;;8.00;99.90;;;;;;6154293;23;20398;-62
2024/03/23 04:59:47;;;;;;;6.50;1.20;;;8.00;99.90;;;;;;6152415;23;20395;-61
2024/03/23 05:02:13;;;;;;;3.33;2.60;;;8.00;99.90;;;;;;6153653;23;20487;-62
2024/03/23 05:04:40;;;;;;;8.53;1.27;;;8.00;99.90;;;;;;6152613;23;20449;-62
2024/03/23 05:07:06;;;;;;;3.60;1.57;;;8.00;99.90;;;;;;6154433;23;20398;-62
2024/03/23 05:09:33;;;;;;;5.70;1.77;;;8.00;99.90;;;;;;6153778;23;20944;-61
2024/03/23 05:12:00;;;;;;;2.40;1.60;;;8.00;99.90;;;;;;6154370;23;20746;-62
2024/03/23 05:14:28;;;;;;;6.33;1.57;;;7.90;99.90;;;;;;6153042;23;20437;-62
2024/03/23 05:16:54;;;;;;;2.90;1.50;;;7.90;99.90;;;;;;6152824;23;20430;-62
2024/03/23 05:19:21;;;;;;;4.43;1.37;;;7.90;99.90;;;;;;6153097;23;20405;-62
2024/03/23 05:21:47;;;;;;;3.33;2.10;;;7.90;99.90;;;;;;6153749;23;20997;-62
2024/03/23 05:24:14;;;;;;;5.67;2.00;;;7.90;99.90;;;;;;6153163;23;20525;-62
2024/03/23 05:26:39;;;;;;;4.40;1.30;;;7.90;99.90;;;;;;6154191;23;20730;-63
2024/03/23 05:29:10;;;;;;;1.83;1.10;;;7.90;99.90;;;;;;6154293;23;20402;-61
2024/03/23 05:31:38;;;;;;;5.07;1.53;;;7.90;99.90;;;;;;6153364;23;20159;-61
2024/03/23 05:34:04;;;;;;;5.83;1.37;;;7.90;99.90;;;;;;6153309;23;20921;-60
2024/03/23 05:36:32;;;;;;;7.97;1.70;;;7.90;99.90;;;;;;6153161;23;20438;-59
2024/03/23 05:38:59;;;;;;;6.10;1.60;;;7.90;99.90;;;;;;6154147;23;20402;-60
2024/03/23 05:41:25;;;;;;;7.17;1.97;;;7.90;99.90;;;;;;6152612;23;20485;-62
2024/03/23 05:43:51;;;;;;;12.23;2.40;;;7.90;99.90;;;;;;6153754;23;20437;-61
2024/03/23 05:46:17;;;;;;;6.10;1.70;;;7.90;99.90;;;;;;6152858;23;20257;-61
2024/03/23 05:48:46;;;;;;;3.07;1.90;;;7.90;99.90;;;;;;6153924;23;20773;-62
2024/03/23 05:51:12;;;;;;;4.27;1.87;;;8.00;99.90;;;;;;6151774;23;20445;-62
2024/03/23 05:53:39;;;;;;;5.07;2.70;;;8.00;99.90;;;;;;6153159;23;20433;-60
2024/03/23 05:56:06;;;;;;;2.53;1.70;;;8.00;99.90;;;;;;6153065;23;20432;-61
2024/03/23 05:58:33;;;;;;;5.47;2.40;;;8.00;99.90;;;;;;6154168;23;20453;-62
2024/03/23 06:01:00;;;;;;;8.60;3.37;;;8.00;99.90;;;;;;6153034;23;20402;-61
2024/03/23 06:03:27;;;;;;;9.13;2.10;;;8.00;99.90;;;;;;6153117;23;20426;-61
2024/03/23 06:05:54;;;;;;;9.83;2.50;;;8.00;99.90;;;;;;6151738;23;20475;-62
2024/03/23 06:08:21;;;;;;;3.70;2.00;;;8.10;99.90;;;;;;6153914;23;20604;-60
2024/03/23 06:10:47;;;;;;;4.60;2.33;;;8.10;99.90;;;;;;6152996;23;20465;-62
2024/03/23 06:13:14;;;;;;;3.63;1.60;;;8.10;99.90;;;;;;6153567;23;20426;-61
2024/03/23 06:15:40;;;;;;;8.43;2.20;;;8.20;99.90;;;;;;6152851;23;20414;-61
2024/03/23 06:18:08;;;;;;;5.50;2.10;;;8.20;99.90;;;;;;6153033;23;20890;-61
2024/03/23 06:20:34;;;;;;;7.83;2.30;;;8.20;99.90;;;;;;6153003;23;20412;-62
2024/03/23 06:23:03;;;;;;;5.10;2.10;;;8.20;99.90;;;;;;6151757;23;20422;-63
2024/03/23 06:25:29;;;;;;;8.13;2.10;;;8.30;99.90;;;;;;6153866;23;20445;-61
2024/03/23 06:27:58;;;;;;;6.57;2.50;;;8.30;99.90;;;;;;6152878;23;20406;-62
2024/03/23 06:30:24;;;;;;;7.13;2.47;;;8.30;99.90;;;;;;6156036;23;21039;-59
2024/03/23 06:32:51;;;;;;;11.13;2.30;;;8.40;99.90;;;;;;6155888;23;20500;-62
2024/03/23 06:35:16;;;;;;;5.43;2.57;;;8.40;99.90;;;;;;6154789;23;20437;-60
2024/03/23 06:37:43;;;;;;;12.77;2.50;;;8.40;99.90;;;;;;6153861;23;20406;-62
2024/03/23 06:40:11;;;;;;;8.23;2.70;;;8.40;99.90;;;;;;6154363;23;20625;-59
2024/03/23 06:42:38;;;;;;;6.73;2.43;;;8.40;99.90;;;;;;6153218;23;20441;-61
2024/03/23 06:45:05;;;;;;;4.57;2.10;;;8.50;99.90;;;;;;6154791;23;20998;-65
2024/03/23 06:47:32;;;;;;;7.83;2.10;;;8.50;99.90;;;;;;6154105;23;20409;-62
2024/03/23 06:50:01;;;;;;;11.83;3.10;;;8.50;99.90;;;;;;6155496;23;20430;-62
2024/03/23 06:52:28;;;;;;;6.83;2.20;;;8.50;99.90;;;;;;6153965;23;20436;-61
2024/03/23 06:54:54;;;;;;;7.17;2.03;;;8.50;99.90;;;;;;6155801;23;20728;-62
2024/03/23 06:57:22;;;;;;;7.17;2.20;;;8.50;99.90;;;;;;6155355;23;20433;-62
2024/03/23 06:59:49;;;;;;;4.73;1.50;;;8.50;99.90;;;;;;6154778;23;20473;-61
2024/03/23 07:02:16;;;;;;;3.33;1.87;;;8.50;99.90;;;;;;6153779;23;20421;-64
2024/03/23 07:04:42;;;;;;;4.13;1.93;;;8.50;99.90;;;;;;6154405;23;20761;-55
2024/03/23 07:07:09;;;;;;;4.03;1.77;;;8.50;99.90;;;;;;6155989;23;20405;-57
2024/03/23 07:09:34;;;;;;;3.70;1.73;;;8.50;99.90;;;;;;6154014;23;20477;-55
2024/03/23 07:12:01;;;;;;;5.80;2.00;;;8.50;99.90;;;;;;6153513;23;20809;-52
2024/03/23 07:14:28;;;;;;;11.70;1.80;;;8.50;99.90;;;;;;6154148;23;20434;-51
2024/03/23 07:16:55;;;;;;;6.40;1.80;;;8.60;99.90;;;;;;6155375;23;20409;-50
2024/03/23 07:19:21;;;;;;;4.87;2.87;;;8.70;99.90;;;;;;6154927;23;20448;-58
2024/03/23 07:21:48;;;;;;;2.33;1.70;;;8.70;99.90;;;;;;6153964;23;20749;-55
2024/03/23 07:24:15;;;;;;;33.97;2.97;;;8.60;99.90;;;;;;6153847;23;20178;-52
2024/03/23 07:26:42;;;;;;;12.63;2.57;;;8.60;99.90;;;;;;6154617;23;20943;-52
2024/03/23 07:29:07;;;;;;;3.97;2.27;;;8.60;99.90;;;;;;6154717;23;20912;-51
2024/03/23 07:31:36;;;;;;;6.47;1.50;;;8.50;99.90;;;;;;6155320;23;20403;-56
2024/03/23 07:34:02;;;;;;;6.63;1.73;;;8.50;99.90;;;;;;6154022;23;20538;-56
2024/03/23 07:36:28;;;;;;;4.90;1.73;;;8.50;99.90;;;;;;6155165;23;20405;-55
2024/03/23 07:38:54;;;;;;;5.37;1.77;;;8.50;99.90;;;;;;6155354;23;20412;-56
2024/03/23 07:41:22;;;;;;;7.03;1.53;;;8.60;99.90;;;;;;6155530;23;20434;-55
2024/03/23 07:43:48;;;;;;;8.93;2.53;;;8.60;99.90;;;;;;6153631;23;20731;-54
2024/03/23 07:46:16;;;;;;;7.07;1.90;;;8.70;99.90;;;;;;6153480;23;20517;-57
2024/03/23 07:48:44;;;;;;;5.03;1.70;;;8.70;99.90;;;;;;6153327;23;20434;-56
2024/03/23 07:51:12;;;;;;;9.70;2.20;;;8.70;99.90;;;;;;6155309;23;20821;-55
2024/03/23 07:53:38;;;;;;;9.93;2.03;;;8.70;99.90;;;;;;6153437;23;20426;-57
2024/03/23 07:56:08;;;;;;;2.30;1.70;;;8.70;99.90;;;;;;6154506;23;20453;-53
2024/03/23 07:58:34;;;;;;;6.00;1.57;;;8.70;99.90;;;;;;6154840;23;20480;-55
2024/03/23 08:01:07;;;;;;;5.93;2.07;;;8.70;99.90;;;;;;6154984;23;20461;-56
2024/03/23 08:03:33;;;;;;;5.37;2.20;;;8.70;99.90;;;;;;6153627;23;20422;-55
2024/03/23 08:06:09;;;;;;;4.07;1.97;;;8.60;99.90;;;;;;6153687;23;20607;-53
2024/03/23 08:08:35;;;;;;;2.00;1.63;;;8.70;99.90;;;;;;6152752;23;20469;-54
2024/03/23 08:11:02;;;;;;;4.00;1.83;;;8.60;99.90;;;;;;6153557;23;20437;-54
2024/03/23 08:13:28;;;;;;;13.37;3.03;;;8.60;99.90;;;;;;6153487;23;20764;-57
2024/03/23 08:15:58;;;;;;;3.83;1.53;;;8.50;99.90;;;;;;6150634;23;20413;-54
2024/03/23 08:18:24;;;;;;;5.23;1.83;;;8.50;99.90;;;;;;6152283;23;20537;-52
2024/03/23 08:20:57;;;;;;;4.20;1.83;;;8.50;99.90;;;;;;6153312;23;20403;-53
2024/03/23 08:23:25;;;;;;;3.23;1.50;;;8.60;99.90;;;;;;6153746;23;20426;-53
2024/03/23 08:25:51;;;;;;;4.20;1.63;;;8.50;99.90;;;;;;6152967;23;20433;-52
2024/03/23 08:28:17;;;;;;;4.40;2.00;;;8.50;99.90;;;;;;6153402;23;20783;-53
2024/03/23 08:30:44;;;;;;;1.97;1.00;;;8.50;99.90;;;;;;6153901;23;20406;-54
2024/03/23 08:33:10;;;;;;;4.73;1.57;;;8.40;99.90;;;;;;6152924;23;20426;-56
2024/03/23 08:35:37;;;;;;;5.27;1.40;;;8.30;99.90;;;;;;6153253;23;20398;-56
2024/03/23 08:38:03;;;;;;;7.07;1.53;;;8.30;99.90;;;;;;6153363;23;20407;-52
2024/03/23 08:40:32;;;;;;;3.53;1.50;;;8.20;99.90;;;;;;6154433;23;20409;-54
2024/03/23 08:42:58;;;;;;;6.37;2.23;;;8.20;99.90;;;;;;6151357;23;20422;-54
2024/03/23 08:45:25;;;;;;;3.47;1.30;;;8.20;99.90;;;;;;6154391;23;20440;-54
2024/03/23 08:47:51;;;;;;;2.90;1.40;;;8.20;99.90;;;;;;6154152;23;20406;-54
2024/03/23 08:50:18;;;;;;;4.47;2.03;;;8.10;99.90;;;;;;6154590;23;20457;-55
2024/03/23 08:52:44;;;;;;;7.63;2.40;;;8.10;99.90;;;;;;6153783;23;20943;-51
2024/03/23 08:55:11;;;;;;;3.80;1.23;;;8.10;99.90;;;;;;6153823;23;20485;-55
2024/03/23 08:57:39;;;;;;;6.50;2.17;;;8.00;99.90;;;;;;6154742;23;20403;-54
2024/03/23 09:00:08;;;;;;;5.00;2.30;;;7.80;99.90;;;;;;6154735;23;20486;-52
2024/03/23 09:02:34;;;;;;;7.60;1.80;;;7.90;99.90;;;;;;6153267;23;20427;-51
2024/03/23 09:05:04;;;;;;;2.90;1.90;;;7.80;99.90;;;;;;6153923;23;20974;-55
2024/03/23 09:07:30;;;;;;;7.23;2.00;;;7.70;99.90;;;;;;6154373;23;20747;-58
2024/03/23 09:09:57;;;;;;;14.37;2.37;;;7.60;99.90;;;;;;6153138;23;20402;-62
2024/03/23 09:12:23;;;;;;;5.20;1.50;;;7.50;99.90;;;;;;6151964;23;20426;-62
2024/03/23 09:14:53;;;;;;;5.60;1.27;;;7.50;99.90;;;;;;6152975;23;20666;-62
2024/03/23 09:17:19;;;;;;;2.83;2.10;;;7.40;99.90;;;;;;6154067;23;20486;-62
2024/03/23 09:19:46;;;;;;;2.77;1.37;;;7.30;99.90;;;;;;6154221;23;20402;-62
2024/03/23 09:22:11;;;;;;;2.00;1.40;;;7.20;99.90;;;;;;6152713;23;20464;-62
2024/03/23 09:24:40;;;;;;;2.03;1.03;;;7.00;99.90;;;;;;6154067;23;20956;-62
2024/03/23 09:27:06;;;;;;;5.47;2.07;;;6.90;99.90;;;;;;6154460;23;20486;-63
2024/03/23 09:29:33;;;;;;;2.80;1.37;;;6.80;99.90;;;;;;6151637;23;20402;-64
2024/03/23 09:32:00;;;;;;;6.40;1.17;;;6.70;99.90;;;;;;6153024;23;20713;-64
2024/03/23 09:34:27;;;;;;;3.67;1.10;;;6.70;99.90;;;;;;6152278;23;20421;-63
2024/03/23 09:36:53;;;;;;;2.93;1.50;;;6.60;99.90;;;;;;6153592;23;20421;-65
2024/03/23 09:39:20;;;;;;;1.87;1.20;;;6.60;99.90;;;;;;6153306;23;20409;-62
2024/03/23 09:41:46;;;;;;;2.40;1.20;;;6.60;99.90;;;;;;6153731;23;20426;-61
2024/03/23 09:44:13;;;;;;;2.90;1.30;;;6.50;99.90;;;;;;6153645;23;20460;-63
2024/03/23 09:46:39;;;;;;;3.73;1.67;;;6.50;99.90;;;;;;6153980;23;20446;-63
2024/03/23 09:49:08;;;;;;;4.67;1.57;;;6.50;99.90;;;;;;6153397;23;20402;-64
2024/03/23 09:51:36;;;;;;;2.93;1.20;;;6.60;99.90;;;;;;6154202;23;20410;-63
2024/03/23 09:54:03;;;;;;;1.87;1.47;;;6.60;99.90;;;;;;6153891;23;20426;-65
2024/03/23 09:56:29;;;;;;;5.57;1.57;;;6.50;99.90;;;;;;6153761;23;20402;-65
2024/03/23 09:59:02;;;;;;;10.43;1.90;;;6.40;99.90;;;;;;6153454;23;20409;-64
2024/03/23 10:01:33;;;;;;;3.20;0.90;;;6.30;99.90;;;;;;6154143;23;20687;-61
2024/03/23 10:03:59;;;;;;;5.60;1.47;;;6.30;99.90;;;;;;6153131;23;20466;-63
2024/03/23 10:06:27;;;;;;;6.93;1.63;;;6.30;99.90;;;;;;6154390;23;20839;-62
2024/03/23 10:08:54;;;;;;;6.57;2.40;;;6.20;99.90;;;;;;6154248;23;20774;-63
2024/03/23 10:11:21;;;;;;;7.57;1.90;;;6.20;99.90;;;;;;6152838;23;20912;-62
2024/03/23 10:13:48;;;;;;;3.53;1.67;;;6.20;99.90;;;;;;6151491;23;20402;-63
2024/03/23 10:16:22;;;;;;;2.90;1.37;;;6.20;99.90;;;;;;6153310;23;20492;-62
2024/03/23 10:18:52;;;;;;;2.13;1.37;;;6.30;99.90;;;;;;6154524;23;20390;-63
2024/03/23 10:21:19;;;;;;;5.10;2.00;;;6.30;99.90;;;;;;6152922;23;20430;-64
2024/03/23 10:23:49;;;;;;;4.00;1.53;;;6.30;99.90;;;;;;6153600;23;20422;-64
2024/03/23 10:26:18;;;;;;;5.20;2.57;;;6.40;99.90;;;;;;6153555;23;20430;-65
2024/03/23 10:29:00;;;;;;;4.10;1.37;;;6.40;99.90;;;;;;6154032;23;20464;-63
2024/03/23 10:31:26;;;;;;;6.13;1.60;;;6.30;99.90;;;;;;6155677;23;20406;-63
2024/03/23 10:33:54;;;;;;;1.93;1.33;;;6.40;99.90;;;;;;6155001;23;20433;-64
2024/03/23 10:36:21;;;;;;;5.47;1.73;;;6.40;99.90;;;;;;6155543;23;20406;-62
2024/03/23 10:38:51;;;;;;;6.50;1.37;;;6.50;99.90;;;;;;6155658;23;20413;-63
2024/03/23 10:41:17;;;;;;;7.40;1.80;;;6.40;99.90;;;;;;6155477;23;20391;-63
2024/03/23 10:43:46;;;;;;;3.73;1.37;;;6.30;99.90;;;;;;6155405;23;20497;-63
2024/03/23 10:46:12;;;;;;;13.33;2.23;;;6.20;99.90;;;;;;6154919;23;20442;-62
2024/03/23 10:48:39;;;;;;;8.27;1.70;;;6.20;99.90;;;;;;6155938;23;20477;-63
2024/03/23 10:51:08;;;;;;;8.10;2.03;;;6.30;99.90;;;;;;6155396;23;20896;-64
2024/03/23 10:53:36;;;;;;;7.03;2.13;;;6.30;99.90;;;;;;6154516;23;20944;-61
2024/03/23 10:56:05;;;;;;;3.37;1.50;;;6.30;99.90;;;;;;6155158;23;20430;-62
2024/03/23 10:58:37;;;;;;;3.77;1.40;;;6.30;99.90;;;;;;6155081;23;20555;-63
2024/03/23 11:01:03;;;;;;;4.47;1.93;;;6.30;99.90;;;;;;6155336;23;20382;-62
2024/03/23 11:03:36;;;;;;;6.27;2.00;;;6.40;99.90;;;;;;6154529;23;20501;-64
2024/03/23 11:06:02;;;;;;;5.10;1.60;;;6.40;99.90;;;;;;6155149;23;20438;-64
2024/03/23 11:08:35;;;;;;;5.70;1.93;;;6.40;99.90;;;;;;6154929;23;20408;-61
2024/03/23 11:11:26;;;;;;;7.17;2.67;;;6.30;99.90;;;;;;6154235;23;20841;-62
2024/03/23 11:13:54;;;;;;;7.10;2.13;;;6.40;99.90;;;;;;6122903;23;20420;-63
2024/03/23 11:16:23;;;;;;;3.60;1.57;;;6.40;99.90;;;;;;6154636;23;20465;-61
2024/03/23 11:18:51;;;;;;;5.27;1.63;;;6.40;99.90;;;;;;6155935;23;20397;-60
2024/03/23 11:21:51;;;;;;;3.03;2.17;;;6.50;99.90;;;;;;6154902;23;20398;-63
2024/03/23 11:24:19;;;;;;;4.73;1.53;;;6.60;99.90;;;;;;6155261;23;20429;-61
2024/03/23 11:26:47;;;;;;;3.50;1.43;;;6.60;99.90;;;;;;6155786;23;20441;-63
2024/03/23 11:29:15;;;;;;;2.40;1.47;;;6.50;99.90;;;;;;6156194;23;20413;-63
2024/03/23 11:31:46;;;;;;;2.37;1.30;;;6.50;99.90;;;;;;6155594;23;22081;-63
2024/03/23 11:34:13;;;;;;;2.40;1.57;;;6.70;99.90;;;;;;6156314;23;20860;-62
2024/03/23 11:36:39;;;;;;;4.47;2.20;;;6.70;99.90;;;;;;6156230;23;20773;-61
2024/03/23 11:39:15;;;;;;;3.63;1.67;;;6.80;99.90;;;;;;6155933;23;20410;-59
2024/03/23 11:41:49;;;;;;;1.60;1.20;;;6.90;99.90;;;;;;6155681;23;20679;-64
2024/03/23 11:44:17;;;;;;;6.17;1.97;;;7.00;99.90;;;;;;6155278;23;20457;-64
2024/03/23 11:46:43;;;;;;;6.20;2.70;;;7.10;99.90;;;;;;6153948;23;20442;-59
2024/03/23 11:49:23;;;;;;;3.40;1.97;;;7.30;99.90;;;;;;6153426;23;20469;-55
2024/03/23 11:51:49;;;;;;;4.10;1.63;;;7.30;99.90;;;;;;6153946;23;20460;-53
2024/03/23 11:54:16;;;;;;;7.43;2.50;;;7.40;99.90;;;;;;6154002;23;20410;-57
2024/03/23 11:56:56;;;;;;;5.33;1.97;;;7.50;99.90;;;;;;6155185;23;20904;-55
2024/03/23 11:59:33;;;;;;;5.83;1.20;;;7.50;99.90;;;;;;6153937;23;20394;-56
2024/03/23 12:02:00;;;;;;;5.87;1.47;;;7.60;99.90;;;;;;6155295;23;20430;-57
2024/03/23 12:04:28;;;;;;;8.40;1.87;;;7.70;99.90;;;;;;6154336;23;20433;-53
2024/03/23 12:07:09;;;;;;;4.13;1.53;;;7.70;99.90;;;;;;6155109;23;20441;-55
2024/03/23 12:09:36;;;;;;;2.03;1.50;;;7.80;99.90;;;;;;6155498;23;20375;-57
2024/03/23 12:12:08;;;;;;;7.53;2.17;;;7.80;99.90;;;;;;6154382;23;20501;-52
2024/03/23 12:14:35;;;;;;;7.50;1.63;;;7.80;99.90;;;;;;6152583;23;20888;-52
2024/03/23 12:17:11;;;;;;;6.23;2.17;;;7.70;99.90;;;;;;6153364;23;20465;-53
2024/03/23 12:19:38;;;;;;;6.17;1.33;;;7.60;99.90;;;;;;6153253;23;20392;-55
2024/03/23 12:22:05;;;;;;;6.30;1.57;;;7.50;99.90;;;;;;6154103;23;20453;-55
2024/03/23 12:24:34;;;;;;;7.97;2.23;;;7.50;99.90;;;;;;6153545;23;20424;-57
2024/03/23 12:27:01;;;;;;;6.17;2.30;;;7.40;99.90;;;;;;6154725;23;20438;-56
2024/03/23 12:29:31;;;;;;;6.13;1.37;;;7.40;99.90;;;;;;6155644;23;20406;-51
2024/03/23 12:31:59;;;;;;;4.20;1.80;;;7.40;99.90;;;;;;6154707;23;20487;-55
2024/03/23 12:34:26;;;;;;;1.67;1.47;;;7.40;99.90;;;;;;6154652;23;20409;-55
2024/03/23 12:36:51;;;;;;;7.30;1.80;;;7.50;99.90;;;;;;6154986;23;20457;-56
2024/03/23 12:39:19;;;;;;;3.70;1.83;;;7.50;99.90;;;;;;6154648;23;20434;-54
2024/03/23 12:41:45;;;;;;;2.70;1.47;;;7.50;99.90;;;;;;6154993;23;20489;-53
2024/03/23 12:44:13;;;;;;;5.03;2.07;;;7.70;99.90;;;;;;6154287;23;20912;-57
2024/03/23 12:46:40;;;;;;;3.27;1.40;;;7.70;99.90;;;;;;6154857;23;20250;-53
2024/03/23 12:49:07;;;;;;;4.80;1.70;;;7.80;99.90;;;;;;6154514;23;20413;-55
2024/03/23 12:51:34;;;;;;;7.03;2.37;;;7.80;99.90;;;;;;6154884;23;20948;-61
2024/03/23 12:54:01;;;;;;;6.20;1.33;;;7.80;99.90;;;;;;6154692;23;20433;-56
2024/03/23 12:56:28;;;;;;;2.20;0.80;;;7.60;99.90;;;;;;6154396;23;20406;-55
2024/03/23 12:58:56;;;;;;;2.50;0.97;;;7.50;99.90;;;;;;6155054;23;20768;-55